Weather observations for the past three days for
Cold Bay, Cold Bay Airport
| Date | Time (akdt) | Wind (kph) | Vis. (km) | Weather | Sky Cond. | Temperature (ºC) | Relative Humidity | Wind Chill (°C) | Heat Index (°C) | Pressure | Precipitation (cm) | ||||||
|---|---|---|---|---|---|---|---|---|---|---|---|---|---|---|---|---|---|
| Air | Dwpt | 6 hour | altimeter (cm) | sea level (mb) | 1 hr | 3 hr | 6 hr | ||||||||||
| Max. | Min. | ||||||||||||||||
| 10 | 09:53 | W 17 | 16.09 | Overcast | SCT021 OVC029 | -0.6 | -5 | -0.6 | -1.7 | 72% | -5 | 75.26 | 1003.5 | ||||
| 10 | 08:53 | NW 17 | 16.09 | Overcast | OVC023 | -1.1 | -5.6 | 72% | -6 | 75.23 | 1003.0 | ||||||
| 10 | 07:53 | NW 17 | 16.09 | Overcast | OVC023 | -1.1 | -5 | 75% | -6 | 75.21 | 1002.7 | ||||||
| 10 | 06:53 | NW 19 | 16.09 | Overcast | OVC021 | -1.7 | -4.4 | 82% | -7 | 75.21 | 1002.8 | ||||||
| 10 | 05:53 | W 19 | 16.09 | Overcast | OVC022 | -1.7 | -5.6 | 75% | -7 | 75.23 | 1003.2 | ||||||
| 10 | 04:53 | W 24 | 16.09 | Overcast | OVC023 | -1.7 | -6.1 | 72% | -8 | 75.23 | 1003.3 | ||||||
| 10 | 03:53 | NW 26 | 16.09 | Overcast | OVC025 | -1.7 | -5.6 | -0.6 | -1.7 | 75% | -8 | 75.26 | 1003.4 | ||||
| 10 | 02:53 | NW 28 | 16.09 | Overcast | OVC027 | -1.7 | -6.1 | 72% | -8 | 75.23 | 1003.1 | ||||||
| 10 | 01:53 | W 22 | 16.09 | Overcast | OVC023 | -1.1 | -5.6 | 72% | -7 | 75.21 | 1002.7 | ||||||
| 10 | 00:53 | NW 20 | 16.09 | Overcast | OVC022 | -1.1 | -5 | 75% | -6 | 75.21 | 1002.8 | ||||||
| 09 | 23:53 | NW 26 | 16.09 | Overcast | OVC023 | -0.6 | -5 | 72% | -6 | 75.21 | 1002.6 | ||||||
| 09 | 22:53 | W 20 | 16.09 | Overcast | OVC020 | -0.6 | -5 | 72% | -6 | 75.18 | 1002.6 | ||||||
| 09 | 21:53 | NW 28 | 16.09 | Overcast | OVC019 | -0.6 | -4.4 | 3.9 | -0.6 | 76% | -7 | 75.16 | 1002.2 | ||||
| 09 | 20:53 | NW 22 | 16.09 | Overcast | OVC018 | 0 | -4.4 | 73% | -5 | 75.13 | 1001.7 | ||||||
| 09 | 19:53 | NW 20 | 16.09 | Overcast | OVC018 | 0.6 | -3.9 | 72% | -4 | 75.11 | 1001.5 | ||||||
| 09 | 18:53 | NW 26 | 16.09 | Overcast | OVC013 | 1.1 | -2.8 | 76% | -4 | 75.11 | 1001.4 | ||||||
| 09 | 17:53 | NW 28 | 16.09 | Overcast | OVC013 | 1.7 | -2.2 | 76% | -4 | 75.08 | 1000.9 | ||||||
| 09 | 16:53 | NW 22 | 16.09 | Overcast | OVC012 | 2.2 | -1.7 | 76% | -2 | 75.08 | 1001.0 | ||||||
| 09 | 15:53 | NW 30 G 41 | 11.27 | Overcast | OVC015 | 3.9 | -1.1 | 4.4 | 1.1 | 70% | -1 | 75.06 | 1000.7 | ||||
| 09 | 14:53 | NW 26 | 12.87 | Mostly Cloudy | BKN015 | 3.3 | -1.7 | 70% | -1 | 75.03 | 1000.5 | ||||||
| 09 | 13:53 | NW 22 G 33 | 16.09 | Mostly Cloudy | BKN017 | 2.8 | -1.7 | 73% | -2 | 75.03 | 1000.4 | ||||||
| 09 | 12:53 | W 19 | 16.09 | Overcast | OVC013 | 2.2 | -1.7 | 76% | -2 | 75.03 | 1000.3 | ||||||
| 09 | 11:53 | W 20 | 16.09 | Overcast | OVC014 | 1.7 | -2.2 | 76% | -3 | 75.03 | 1000.3 | ||||||
| 09 | 10:53 | NW 20 | 8.05 | Overcast with Haze | OVC016 | 1.1 | -2.2 | 79% | -3 | 75.03 | 1000.5 | ||||||
| 09 | 09:53 | NW 22 | 11.27 | Overcast | OVC018 | 1.1 | -2.8 | 1.1 | -1.1 | 76% | -4 | 75.03 | 1000.4 | ||||
| 09 | 08:53 | NW 22 | 16.09 | Overcast | OVC017 | 0.6 | -2.2 | 82% | -4 | 75.03 | 1000.4 | ||||||
| 09 | 07:53 | NW 20 | 16.09 | Overcast | OVC016 | 0.6 | -2.8 | 78% | -4 | 75.06 | 1000.6 | ||||||
| 09 | 06:53 | NW 20 | 16.09 | Overcast | OVC015 | 0 | -2.8 | 82% | -5 | 75.08 | 1001.0 | ||||||
| 09 | 05:53 | NW 24 | 16.09 | Overcast | OVC018 | -0.6 | -3.9 | 79% | -6 | 75.11 | 1001.4 | ||||||
| 09 | 04:53 | NW 17 | 16.09 | Overcast | OVC019 | -0.6 | -3.3 | 82% | -5 | 75.16 | 1002.0 | ||||||
| 09 | 03:53 | NW 19 | 16.09 | Overcast | OVC019 | -0.6 | -3.9 | 0 | -0.6 | 79% | -5 | 75.18 | 1002.4 | ||||
| 09 | 02:53 | NW 17 | 16.09 | Overcast | OVC018 | 0 | -3.3 | 79% | -4 | 75.21 | 1002.9 | ||||||
| 09 | 01:53 | NW 15 | 16.09 | Overcast | OVC018 | -0.6 | -3.9 | 79% | -5 | 75.26 | 1003.4 | ||||||
| 09 | 00:53 | NW 15 | 16.09 | Overcast | OVC015 | -0.6 | -3.3 | 82% | -5 | 75.29 | 1003.9 | ||||||
| 08 | 23:53 | NW 11 | 16.09 | Overcast | OVC013 | 0 | -2.8 | 82% | -3 | 75.31 | 1004.0 | ||||||
| 08 | 22:53 | NW 13 | 16.09 | Overcast | OVC006 | -0.6 | -1.7 | 92% | -4 | 75.31 | 1004.3 | ||||||
| 08 | 21:53 | NW 20 | 16.09 | Overcast | OVC008 | 0 | -1.7 | 2.2 | 0 | 88% | -5 | 75.31 | 1004.3 | ||||
| 08 | 20:53 | NW 19 | 16.09 | Overcast | OVC011 | 1.1 | -1.7 | 82% | -3 | 75.31 | 1004.3 | ||||||
| 08 | 19:53 | NW 15 | 16.09 | Overcast | OVC010 | 1.1 | -1.7 | 82% | -3 | 75.34 | 1004.5 | ||||||
| 08 | 18:53 | NW 15 | 16.09 | Overcast | OVC011 | 1.1 | -2.2 | 79% | -3 | 75.39 | 1005.0 | ||||||
| 08 | 17:53 | NW 17 | 9.66 | Overcast with Haze | OVC012 | 1.7 | -1.7 | 78% | -2 | 75.39 | 1005.3 | ||||||
| 08 | 16:53 | NW 15 | 16.09 | Overcast | OVC013 | 1.7 | -1.7 | 78% | -2 | 75.44 | 1005.7 | ||||||
| 08 | 15:53 | NW 22 | 16.09 | Overcast | OVC014 | 2.2 | -2.2 | 2.2 | -0.6 | 73% | -2 | 75.46 | 1006.2 | ||||
| 08 | 14:53 | NW 17 | 16.09 | Overcast | OVC014 | 1.7 | -2.8 | 72% | -2 | 75.49 | 1006.5 | ||||||
| 08 | 13:53 | NW 17 | 12.87 | Overcast | OVC014 | 2.2 | -2.2 | 73% | -2 | 75.51 | 1006.9 | ||||||
| 08 | 12:53 | W 15 | 16.09 | Overcast | OVC012 | 0.6 | -2.8 | 78% | -3 | 75.57 | 1007.4 | ||||||
| 08 | 11:53 | NW 15 | 11.27 | Overcast | OVC012 | 0 | -3.3 | 79% | -4 | 75.59 | 1007.7 | ||||||
| 08 | 10:53 | N 15 | 16.09 | Overcast | OVC013 | 0 | -3.9 | 75% | -4 | 75.59 | 1008.0 | ||||||
| 08 | 09:53 | NW 17 | 16.09 | Overcast | OVC011 | -0.6 | -3.3 | -0.6 | -1.7 | 82% | -5 | 75.62 | 1008.4 | ||||
| 08 | 08:53 | NW 15 | 16.09 | Overcast | OVC010 | -1.1 | -3.3 | 85% | -5 | 75.64 | 1008.7 | ||||||
| 08 | 07:53 | NW 19 | 16.09 | Overcast | OVC007 | -1.1 | -2.8 | 88% | -6 | 75.67 | 1008.7 | ||||||
| 08 | 06:53 | N 9 | 16.09 | Overcast | OVC006 | -1.7 | -2.2 | 96% | -5 | 75.69 | 1009.1 | ||||||
| 08 | 05:53 | N 13 | 16.09 | Overcast | OVC005 | -1.7 | -2.8 | 92% | -6 | 75.72 | 1009.4 | ||||||
| 08 | 04:53 | N 17 | 16.09 | Overcast | OVC004 | -1.7 | -2.8 | 92% | -6 | 75.74 | 1009.8 | ||||||
| 08 | 03:53 | N 15 | 16.09 | Overcast | OVC004 | -1.7 | -2.2 | -0.6 | -1.7 | 96% | -6 | 75.77 | 1010.2 | ||||
| 08 | 02:53 | N 15 | 16.09 | Overcast | OVC005 | -1.7 | -2.8 | 92% | -6 | 75.82 | 1010.8 | ||||||
| 08 | 01:53 | NW 17 | 16.09 | Overcast | OVC005 | -1.7 | -2.8 | 92% | -6 | 75.84 | 1011.1 | ||||||
| 08 | 00:53 | N 19 | 16.09 | Overcast | OVC005 | -1.7 | -2.8 | 92% | -7 | 75.84 | 1011.1 | ||||||
| 07 | 23:53 | N 17 | 16.09 | Overcast | OVC004 | -1.7 | -2.8 | 92% | -6 | 75.87 | 1011.7 | ||||||
| 07 | 22:53 | NW 13 | 16.09 | Overcast | OVC003 | -1.1 | -2.2 | 92% | -5 | 75.87 | 1011.7 | ||||||
| 07 | 21:53 | NW 17 | 16.09 | Overcast | OVC004 | -0.6 | -1.7 | 6.7 | -0.6 | 92% | -5 | 75.87 | 1011.5 | ||||
| 07 | 20:53 | N 20 | 16.09 | Overcast | OVC007 | 0.6 | -1.1 | 89% | -4 | 75.87 | 1011.6 | ||||||
| 07 | 19:53 | N 19 | 16.09 | Partly Cloudy | SCT009 | 2.2 | -1.1 | 79% | -2 | 75.87 | 1011.6 | ||||||
| 07 | 18:53 | N 20 | 16.09 | Fair | CLR | 5 | 0 | 70% | 1 | 75.87 | 1011.8 | ||||||
| 07 | 17:53 | N 26 | 16.09 | Fair | CLR | 5.6 | 0 | 68% | 2 | 75.9 | 1012.1 | ||||||
| 07 | 16:53 | NW 24 G 35 | 16.09 | Fair | CLR | 6.1 | -0.6 | 63% | 2 | 75.95 | 1012.6 | ||||||
| Date | Time (akdt) | Wind (kph) | Vis. (km) | Weather | Sky Cond. | Air | Dwpt | Max. | Min. | Relative Humidity | Wind Chill (°C) | Heat Index (°C) | altimeter (cm) | sea level (mb) | 1 hr | 3 hr | 6 hr |
| 6 hour | |||||||||||||||||
| Temperature (ºC) | Pressure | Precipitation (cm) | |||||||||||||||